sensor_id;sensor_type;location;lat;lon;timestamp;pressure;altitude;pressure_sealevel;temperature;humidity
47530;BME280;33272;51.922;7.730;2023-03-20T00:00:47;144794.94;;;9.25;100.00
47530;BME280;33272;51.922;7.730;2023-03-20T00:03:14;144807.63;;;9.31;100.00
47530;BME280;33272;51.922;7.730;2023-03-20T00:05:41;144830.44;;;9.40;100.00
47530;BME280;33272;51.922;7.730;2023-03-20T00:08:08;144841.78;;;9.44;100.00
47530;BME280;33272;51.922;7.730;2023-03-20T00:10:37;144851.91;;;9.48;100.00
47530;BME280;33272;51.922;7.730;2023-03-20T00:13:09;144859.50;;;9.51;100.00
47530;BME280;33272;51.922;7.730;2023-03-20T00:15:42;144874.72;;;9.58;100.00
47530;BME280;33272;51.922;7.730;2023-03-20T00:18:14;144884.88;;;9.62;100.00
47530;BME280;33272;51.922;7.730;2023-03-20T00:20:43;144892.47;;;9.65;100.00
47530;BME280;33272;51.922;7.730;2023-03-20T00:23:10;144903.84;;;9.69;100.00
47530;BME280;33272;51.922;7.730;2023-03-20T00:25:38;144910.19;;;9.72;100.00
47530;BME280;33272;51.922;7.730;2023-03-20T00:28:37;144910.19;;;9.72;100.00
47530;BME280;33272;51.922;7.730;2023-03-20T00:31:17;144926.66;;;9.79;100.00
47530;BME280;33272;51.922;7.730;2023-03-20T00:33:46;144925.41;;;9.78;100.00
47530;BME280;33272;51.922;7.730;2023-03-20T00:36:13;144931.72;;;9.81;100.00
47530;BME280;33272;51.922;7.730;2023-03-20T00:38:40;144930.44;;;9.80;100.00
47530;BME280;33272;51.922;7.730;2023-03-20T00:41:22;144926.66;;;9.79;100.00
47530;BME280;33272;51.922;7.730;2023-03-20T00:43:54;144934.25;;;9.82;100.00
47530;BME280;33272;51.922;7.730;2023-03-20T00:46:24;144941.84;;;9.85;100.00
47530;BME280;33272;51.922;7.730;2023-03-20T00:48:52;144943.13;;;9.85;100.00
47530;BME280;33272;51.922;7.730;2023-03-20T00:51:19;144941.84;;;9.85;100.00
47530;BME280;33272;51.922;7.730;2023-03-20T00:53:46;144948.19;;;9.87;100.00
47530;BME280;33272;51.922;7.730;2023-03-20T00:56:32;144953.22;;;9.89;100.00
47530;BME280;33272;51.922;7.730;2023-03-20T00:59:02;144965.91;;;9.94;100.00
47530;BME280;33272;51.922;7.730;2023-03-20T01:01:31;144960.84;;;9.92;100.00
47530;BME280;33272;51.922;7.730;2023-03-20T01:03:58;144948.19;;;9.87;100.00
47530;BME280;33272;51.922;7.730;2023-03-20T01:06:25;144946.94;;;9.87;100.00
47530;BME280;33272;51.922;7.730;2023-03-20T01:08:53;144971.00;;;9.96;100.00
47530;BME280;33272;51.922;7.730;2023-03-20T01:11:23;144959.56;;;9.92;100.00
47530;BME280;33272;51.922;7.730;2023-03-20T01:13:50;144945.63;;;9.86;100.00
47530;BME280;33272;51.922;7.730;2023-03-20T01:16:21;144948.19;;;9.87;100.00
47530;BME280;33272;51.922;7.730;2023-03-20T01:18:50;144955.78;;;9.90;100.00
47530;BME280;33272;51.922;7.730;2023-03-20T01:21:19;144974.78;;;9.98;100.00
47530;BME280;33272;51.922;7.730;2023-03-20T01:23:46;144988.72;;;10.04;100.00
47530;BME280;33272;51.922;7.730;2023-03-20T01:26:23;144957.06;;;9.91;100.00
47530;BME280;33272;51.922;7.730;2023-03-20T01:28:52;144982.38;;;10.01;100.00
47530;BME280;33272;51.922;7.730;2023-03-20T01:31:20;145000.09;;;10.08;100.00
47530;BME280;33272;51.922;7.730;2023-03-20T01:33:46;145008.97;;;10.12;100.00
47530;BME280;33272;51.922;7.730;2023-03-20T01:36:20;145010.28;;;10.12;100.00
47530;BME280;33272;51.922;7.730;2023-03-20T01:38:53;145008.97;;;10.12;100.00
47530;BME280;33272;51.922;7.730;2023-03-20T01:41:23;145007.72;;;10.11;100.00
47530;BME280;33272;51.922;7.730;2023-03-20T01:43:52;144998.84;;;10.08;100.00
47530;BME280;33272;51.922;7.730;2023-03-20T01:46:23;144984.91;;;10.02;100.00
47530;BME280;33272;51.922;7.730;2023-03-20T01:52:10;144934.25;;;9.82;100.00
47530;BME280;33272;51.922;7.730;2023-03-20T01:54:38;144964.66;;;9.94;100.00
47530;BME280;33272;51.922;7.730;2023-03-20T01:57:11;144943.13;;;9.85;100.00
47530;BME280;33272;51.922;7.730;2023-03-20T01:59:44;144929.16;;;9.80;100.00
47530;BME280;33272;51.922;7.730;2023-03-20T02:02:15;144946.94;;;9.87;100.00
47530;BME280;33272;51.922;7.730;2023-03-20T02:04:48;144950.72;;;9.88;100.00
47530;BME280;33272;51.922;7.730;2023-03-20T02:07:21;144925.41;;;9.78;100.00
47530;BME280;33272;51.922;7.730;2023-03-20T02:09:49;144924.13;;;9.78;100.00
47530;BME280;33272;51.922;7.730;2023-03-20T02:12:17;144897.50;;;9.67;100.00
47530;BME280;33272;51.922;7.730;2023-03-20T02:14:46;144925.41;;;9.78;100.00
47530;BME280;33272;51.922;7.730;2023-03-20T02:17:14;144907.69;;;9.71;100.00
47530;BME280;33272;51.922;7.730;2023-03-20T02:19:52;144897.50;;;9.67;100.00
47530;BME280;33272;51.922;7.730;2023-03-20T02:29:20;144891.16;;;9.64;100.00
47530;BME280;33272;51.922;7.730;2023-03-20T02:42:19;144875.97;;;9.58;100.00
47530;BME280;33272;51.922;7.730;2023-03-20T02:44:57;144884.88;;;9.62;100.00
47530;BME280;33272;51.922;7.730;2023-03-20T02:47:34;144886.13;;;9.62;100.00
47530;BME280;33272;51.922;7.730;2023-03-20T02:50:11;144887.38;;;9.63;100.00
47530;BME280;33272;51.922;7.730;2023-03-20T02:52:46;144877.28;;;9.59;100.00
47530;BME280;33272;51.922;7.730;2023-03-20T02:55:17;144868.38;;;9.55;100.00
47530;BME280;33272;51.922;7.730;2023-03-20T02:57:55;144868.38;;;9.55;100.00
47530;BME280;33272;51.922;7.730;2023-03-20T03:00:28;144869.69;;;9.56;100.00
47530;BME280;33272;51.922;7.730;2023-03-20T03:03:05;144868.38;;;9.55;100.00
47530;BME280;33272;51.922;7.730;2023-03-20T03:05:40;144855.75;;;9.50;100.00
47530;BME280;33272;51.922;7.730;2023-03-20T03:08:11;144835.47;;;9.42;100.00
47530;BME280;33272;51.922;7.730;2023-03-20T03:10:44;144836.72;;;9.42;100.00
47530;BME280;33272;51.922;7.730;2023-03-20T03:13:17;144851.91;;;9.48;100.00
47530;BME280;33272;51.922;7.730;2023-03-20T03:15:48;144849.41;;;9.47;100.00
47530;BME280;33272;51.922;7.730;2023-03-20T03:18:20;144835.47;;;9.42;100.00
47530;BME280;33272;51.922;7.730;2023-03-20T03:20:56;144816.47;;;9.34;100.00
47530;BME280;33272;51.922;7.730;2023-03-20T03:23:28;144850.66;;;9.48;100.00
47530;BME280;33272;51.922;7.730;2023-03-20T03:25:56;144839.28;;;9.43;100.00
47530;BME280;33272;51.922;7.730;2023-03-20T03:28:31;144836.72;;;9.42;100.00
47530;BME280;33272;51.922;7.730;2023-03-20T03:31:04;144827.84;;;9.39;100.00
47530;BME280;33272;51.922;7.730;2023-03-20T03:33:35;144849.41;;;9.47;100.00
47530;BME280;33272;51.922;7.730;2023-03-20T03:36:12;144854.47;;;9.49;100.00
47530;BME280;33272;51.922;7.730;2023-03-20T03:38:48;144834.19;;;9.41;100.00
47530;BME280;33272;51.922;7.730;2023-03-20T03:41:23;144805.06;;;9.29;100.00
47530;BME280;33272;51.922;7.730;2023-03-20T03:44:02;144811.41;;;9.32;100.00
47530;BME280;33272;51.922;7.730;2023-03-20T03:46:38;144821.53;;;9.36;100.00
47530;BME280;33272;51.922;7.730;2023-03-20T03:49:09;144839.28;;;9.43;100.00
47530;BME280;33272;51.922;7.730;2023-03-20T03:51:43;144836.72;;;9.42;100.00
47530;BME280;33272;51.922;7.730;2023-03-20T03:54:15;144841.78;;;9.44;100.00
47530;BME280;33272;51.922;7.730;2023-03-20T03:56:46;144846.88;;;9.46;100.00
47530;BME280;33272;51.922;7.730;2023-03-20T03:59:23;144853.22;;;9.49;100.00
47530;BME280;33272;51.922;7.730;2023-03-20T04:01:52;144848.13;;;9.47;100.00
47530;BME280;33272;51.922;7.730;2023-03-20T04:04:21;144853.22;;;9.49;100.00
47530;BME280;33272;51.922;7.730;2023-03-20T04:06:49;144836.72;;;9.42;100.00
47530;BME280;33272;51.922;7.730;2023-03-20T04:09:16;144834.19;;;9.41;100.00
47530;BME280;33272;51.922;7.730;2023-03-20T04:11:46;144834.19;;;9.41;100.00
47530;BME280;33272;51.922;7.730;2023-03-20T04:14:16;144821.53;;;9.36;100.00
47530;BME280;33272;51.922;7.730;2023-03-20T04:16:44;144834.19;;;9.41;100.00
47530;BME280;33272;51.922;7.730;2023-03-20T04:19:11;144815.22;;;9.34;100.00
47530;BME280;33272;51.922;7.730;2023-03-20T04:21:38;144821.53;;;9.36;100.00
47530;BME280;33272;51.922;7.730;2023-03-20T04:24:06;144803.81;;;9.29;100.00
47530;BME280;33272;51.922;7.730;2023-03-20T04:26:33;144788.63;;;9.23;100.00
47530;BME280;33272;51.922;7.730;2023-03-20T04:29:00;144800.03;;;9.27;100.00
47530;BME280;33272;51.922;7.730;2023-03-20T04:31:28;144817.75;;;9.35;100.00
47530;BME280;33272;51.922;7.730;2023-03-20T04:33:55;144796.22;;;9.26;100.00
47530;BME280;33272;51.922;7.730;2023-03-20T04:36:22;144775.97;;;9.18;100.00
47530;BME280;33272;51.922;7.730;2023-03-20T04:38:49;144773.41;;;9.17;100.00
47530;BME280;33272;51.922;7.730;2023-03-20T04:41:16;144782.28;;;9.20;100.00
47530;BME280;33272;51.922;7.730;2023-03-20T04:43:45;144786.09;;;9.22;100.00
47530;BME280;33272;51.922;7.730;2023-03-20T04:46:12;144777.25;;;9.18;100.00
47530;BME280;33272;51.922;7.730;2023-03-20T04:48:41;144760.78;;;9.12;100.00
47530;BME280;33272;51.922;7.730;2023-03-20T04:51:08;144755.72;;;9.10;100.00
47530;BME280;33272;51.922;7.730;2023-03-20T04:53:35;144762.06;;;9.12;100.00
47530;BME280;33272;51.922;7.730;2023-03-20T04:56:02;144762.06;;;9.12;100.00
47530;BME280;33272;51.922;7.730;2023-03-20T04:58:29;144760.78;;;9.12;100.00
47530;BME280;33272;51.922;7.730;2023-03-20T05:00:56;144773.41;;;9.17;100.00
47530;BME280;33272;51.922;7.730;2023-03-20T05:03:23;144781.00;;;9.20;100.00
47530;BME280;33272;51.922;7.730;2023-03-20T05:05:51;144760.78;;;9.12;100.00
47530;BME280;33272;51.922;7.730;2023-03-20T05:08:18;144743.03;;;9.04;100.00
47530;BME280;33272;51.922;7.730;2023-03-20T05:10:45;144741.78;;;9.04;100.00
47530;BME280;33272;51.922;7.730;2023-03-20T05:13:12;144755.72;;;9.10;100.00
47530;BME280;33272;51.922;7.730;2023-03-20T05:15:40;144764.56;;;9.13;100.00
47530;BME280;33272;51.922;7.730;2023-03-20T05:18:07;144748.13;;;9.07;100.00
47530;BME280;33272;51.922;7.730;2023-03-20T05:20:34;144750.63;;;9.08;100.00
47530;BME280;33272;51.922;7.730;2023-03-20T05:23:03;144739.25;;;9.03;100.00
47530;BME280;33272;51.922;7.730;2023-03-20T05:25:30;144741.78;;;9.04;100.00
47530;BME280;33272;51.922;7.730;2023-03-20T05:27:57;144764.56;;;9.13;100.00
47530;BME280;33272;51.922;7.730;2023-03-20T05:30:24;144760.78;;;9.12;100.00
47530;BME280;33272;51.922;7.730;2023-03-20T05:32:51;144729.16;;;8.99;100.00
47530;BME280;33272;51.922;7.730;2023-03-20T05:35:18;144750.63;;;9.08;100.00
47530;BME280;33272;51.922;7.730;2023-03-20T05:37:45;144727.84;;;8.98;100.00
47530;BME280;33272;51.922;7.730;2023-03-20T05:40:15;144707.63;;;8.90;100.00
47530;BME280;33272;51.922;7.730;2023-03-20T05:42:44;144738.00;;;9.02;100.00
47530;BME280;33272;51.922;7.730;2023-03-20T05:45:11;144731.66;;;9.00;100.00
47530;BME280;33272;51.922;7.730;2023-03-20T05:47:40;144750.63;;;9.08;100.00
47530;BME280;33272;51.922;7.730;2023-03-20T05:50:09;144730.41;;;8.99;100.00
47530;BME280;33272;51.922;7.730;2023-03-20T05:52:36;144744.34;;;9.05;100.00
47530;BME280;33272;51.922;7.730;2023-03-20T05:55:04;144751.94;;;9.08;100.00
47530;BME280;33272;51.922;7.730;2023-03-20T05:57:33;144734.19;;;9.01;100.00
47530;BME280;33272;51.922;7.730;2023-03-20T06:00:00;144738.00;;;9.02;100.00
47530;BME280;33272;51.922;7.730;2023-03-20T06:02:27;144739.25;;;9.03;100.00
47530;BME280;33272;51.922;7.730;2023-03-20T06:04:54;144741.78;;;9.04;100.00
47530;BME280;33272;51.922;7.730;2023-03-20T06:07:21;144756.97;;;9.10;100.00
47530;BME280;33272;51.922;7.730;2023-03-20T06:09:48;144758.22;;;9.11;100.00
47530;BME280;33272;51.922;7.730;2023-03-20T06:12:15;144735.44;;;9.01;100.00
47530;BME280;33272;51.922;7.730;2023-03-20T06:14:43;144730.41;;;8.99;100.00
47530;BME280;33272;51.922;7.730;2023-03-20T06:17:10;144760.78;;;9.12;100.00
47530;BME280;33272;51.922;7.730;2023-03-20T06:19:37;144749.38;;;9.07;100.00
47530;BME280;33272;51.922;7.730;2023-03-20T06:22:05;144777.25;;;9.18;100.00
47530;BME280;33272;51.922;7.730;2023-03-20T06:24:32;144732.91;;;9.00;100.00
47530;BME280;33272;51.922;7.730;2023-03-20T06:27:00;144731.66;;;9.00;100.00
47530;BME280;33272;51.922;7.730;2023-03-20T06:29:27;144715.22;;;8.93;100.00
47530;BME280;33272;51.922;7.730;2023-03-20T06:31:56;144743.03;;;9.04;100.00
47530;BME280;33272;51.922;7.730;2023-03-20T06:34:22;144727.84;;;8.98;100.00
47530;BME280;33272;51.922;7.730;2023-03-20T06:36:50;144716.47;;;8.94;100.00
47530;BME280;33272;51.922;7.730;2023-03-20T06:39:17;144743.03;;;9.04;100.00
47530;BME280;33272;51.922;7.730;2023-03-20T06:41:44;144751.94;;;9.08;100.00
47530;BME280;33272;51.922;7.730;2023-03-20T06:44:11;144754.44;;;9.09;100.00
47530;BME280;33272;51.922;7.730;2023-03-20T06:46:38;144750.63;;;9.08;100.00
47530;BME280;33272;51.922;7.730;2023-03-20T06:49:06;144725.31;;;8.97;100.00
47530;BME280;33272;51.922;7.730;2023-03-20T06:51:33;144725.31;;;8.97;100.00
47530;BME280;33272;51.922;7.730;2023-03-20T06:54:00;144727.84;;;8.98;100.00
47530;BME280;33272;51.922;7.730;2023-03-20T06:56:27;144730.41;;;8.99;100.00
47530;BME280;33272;51.922;7.730;2023-03-20T06:58:55;144721.56;;;8.96;100.00
47530;BME280;33272;51.922;7.730;2023-03-20T07:01:23;144694.94;;;8.85;100.00
47530;BME280;33272;51.922;7.730;2023-03-20T07:03:50;144686.09;;;8.81;100.00
47530;BME280;33272;51.922;7.730;2023-03-20T07:06:19;144706.34;;;8.90;100.00
47530;BME280;33272;51.922;7.730;2023-03-20T07:08:46;144669.66;;;8.75;100.00
47530;BME280;33272;51.922;7.730;2023-03-20T07:11:13;144668.38;;;8.74;100.00
47530;BME280;33272;51.922;7.730;2023-03-20T07:13:40;144689.91;;;8.83;100.00
47530;BME280;33272;51.922;7.730;2023-03-20T07:16:08;144705.09;;;8.89;100.00
47530;BME280;33272;51.922;7.730;2023-03-20T07:18:36;144738.00;;;9.02;100.00
47530;BME280;33272;51.922;7.730;2023-03-20T07:21:05;144725.31;;;8.97;100.00
47530;BME280;33272;51.922;7.730;2023-03-20T07:23:34;144751.94;;;9.08;100.00
47530;BME280;33272;51.922;7.730;2023-03-20T07:26:01;144775.97;;;9.18;100.00
47530;BME280;33272;51.922;7.730;2023-03-20T07:28:30;144791.19;;;9.24;100.00
47530;BME280;33272;51.922;7.730;2023-03-20T07:30:57;144796.22;;;9.26;100.00
47530;BME280;33272;51.922;7.730;2023-03-20T07:33:24;144808.88;;;9.31;100.00
47530;BME280;33272;51.922;7.730;2023-03-20T07:35:52;144859.50;;;9.51;100.00
47530;BME280;33272;51.922;7.730;2023-03-20T07:38:19;144846.88;;;9.46;100.00
47530;BME280;33272;51.922;7.730;2023-03-20T07:40:48;144849.41;;;9.47;100.00
47530;BME280;33272;51.922;7.730;2023-03-20T07:43:15;144805.06;;;9.29;100.00
47530;BME280;33272;51.922;7.730;2023-03-20T07:45:42;144813.97;;;9.33;100.00
47530;BME280;33272;51.922;7.730;2023-03-20T07:48:09;144845.63;;;9.46;100.00
47530;BME280;33272;51.922;7.730;2023-03-20T07:50:36;144854.47;;;9.49;100.00
47530;BME280;33272;51.922;7.730;2023-03-20T07:53:03;144846.88;;;9.46;100.00
47530;BME280;33272;51.922;7.730;2023-03-20T07:55:30;144887.38;;;9.63;100.00
47530;BME280;33272;51.922;7.730;2023-03-20T07:57:58;144854.47;;;9.49;100.00
47530;BME280;33272;51.922;7.730;2023-03-20T08:00:25;144889.91;;;9.64;100.00
47530;BME280;33272;51.922;7.730;2023-03-20T08:02:52;144881.06;;;9.60;100.00
47530;BME280;33272;51.922;7.730;2023-03-20T08:05:21;144921.56;;;9.77;100.00
47530;BME280;33272;51.922;7.730;2023-03-20T08:07:48;144959.56;;;9.92;100.00
47530;BME280;33272;51.922;7.730;2023-03-20T08:10:16;145001.41;;;10.09;100.00
47530;BME280;33272;51.922;7.730;2023-03-20T08:12:43;145036.84;;;10.23;100.00
47530;BME280;33272;51.922;7.730;2023-03-20T08:15:12;145052.13;;;10.29;100.00
47530;BME280;33272;51.922;7.730;2023-03-20T08:17:41;144991.25;;;10.05;100.00
47530;BME280;33272;51.922;7.730;2023-03-20T08:20:10;144977.28;;;9.99;100.00
47530;BME280;33272;51.922;7.730;2023-03-20T08:22:37;145001.41;;;10.09;100.00
47530;BME280;33272;51.922;7.730;2023-03-20T08:25:06;145055.91;;;10.31;100.00
47530;BME280;33272;51.922;7.730;2023-03-20T08:27:34;145060.97;;;10.33;100.00
47530;BME280;33272;51.922;7.730;2023-03-20T08:30:01;145048.34;;;10.28;100.00
47530;BME280;33272;51.922;7.730;2023-03-20T08:32:29;145043.19;;;10.26;100.00
47530;BME280;33272;51.922;7.730;2023-03-20T08:34:56;144982.38;;;10.01;100.00
47530;BME280;33272;51.922;7.730;2023-03-20T08:37:23;145040.69;;;10.25;100.00
47530;BME280;33272;51.922;7.730;2023-03-20T08:39:50;145028.00;;;10.19;100.00
47530;BME280;33272;51.922;7.730;2023-03-20T08:42:17;145058.47;;;10.32;100.00
47530;BME280;33272;51.922;7.730;2023-03-20T08:44:44;145074.94;;;10.38;100.00
47530;BME280;33272;51.922;7.730;2023-03-20T08:47:12;145080.00;;;10.40;100.00
47530;BME280;33272;51.922;7.730;2023-03-20T08:49:42;145147.16;;;10.67;100.00
47530;BME280;33272;51.922;7.730;2023-03-20T08:52:09;145105.34;;;10.51;100.00
47530;BME280;33272;51.922;7.730;2023-03-20T08:54:36;145058.47;;;10.32;100.00
47530;BME280;33272;51.922;7.730;2023-03-20T08:57:03;145111.69;;;10.53;100.00
47530;BME280;33272;51.922;7.730;2023-03-20T08:59:30;145169.97;;;10.77;100.00
47530;BME280;33272;51.922;7.730;2023-03-20T09:01:57;145130.69;;;10.61;100.00
47530;BME280;33272;51.922;7.730;2023-03-20T09:04:24;145154.75;;;10.71;100.00
47530;BME280;33272;51.922;7.730;2023-03-20T09:06:53;145148.41;;;10.68;100.00
47530;BME280;33272;51.922;7.730;2023-03-20T09:09:21;145199.16;;;10.88;100.00
47530;BME280;33272;51.922;7.730;2023-03-20T09:11:54;145183.94;;;10.82;100.00
47530;BME280;33272;51.922;7.730;2023-03-20T09:14:21;145239.72;;;11.05;100.00
47530;BME280;33272;51.922;7.730;2023-03-20T09:16:48;145268.88;;;11.17;100.00
47530;BME280;33272;51.922;7.730;2023-03-20T09:19:16;145281.53;;;11.22;100.00
47530;BME280;33272;51.922;7.730;2023-03-20T09:21:44;145229.59;;;11.01;100.00
47530;BME280;33272;51.922;7.730;2023-03-20T09:24:12;145242.22;;;11.06;100.00
47530;BME280;33272;51.922;7.730;2023-03-20T09:26:39;145183.94;;;10.82;99.79
47530;BME280;33272;51.922;7.730;2023-03-20T09:29:06;145238.44;;;11.04;100.00
47530;BME280;33272;51.922;7.730;2023-03-20T09:31:33;145246.06;;;11.07;99.89
47530;BME280;33272;51.922;7.730;2023-03-20T09:34:00;145154.75;;;10.71;100.00
47530;BME280;33272;51.922;7.730;2023-03-20T09:36:27;145149.69;;;10.68;98.79
47530;BME280;33272;51.922;7.730;2023-03-20T09:38:54;145152.25;;;10.70;99.88
47530;BME280;33272;51.922;7.730;2023-03-20T09:41:24;145158.59;;;10.72;100.00
47530;BME280;33272;51.922;7.730;2023-03-20T09:44:13;145158.59;;;10.72;96.57
47530;BME280;33272;51.922;7.730;2023-03-20T09:46:59;145284.09;;;11.23;98.08
47530;BME280;33272;51.922;7.730;2023-03-20T09:49:43;145308.19;;;11.32;96.67
47530;BME280;33272;51.922;7.730;2023-03-20T09:52:20;145385.56;;;11.64;96.62
47530;BME280;33272;51.922;7.730;2023-03-20T09:54:52;145404.59;;;11.71;97.48
47530;BME280;33272;51.922;7.730;2023-03-20T09:57:25;145395.72;;;11.68;96.62
47530;BME280;33272;51.922;7.730;2023-03-20T09:59:56;145323.41;;;11.39;95.38
47530;BME280;33272;51.922;7.730;2023-03-20T10:02:35;145366.53;;;11.56;94.79
47530;BME280;33272;51.922;7.730;2023-03-20T10:05:18;145424.91;;;11.79;95.90
47530;BME280;33272;51.922;7.730;2023-03-20T10:07:47;145508.66;;;12.13;96.97
47530;BME280;33272;51.922;7.730;2023-03-20T10:10:15;145446.47;;;11.88;95.85
47530;BME280;33272;51.922;7.730;2023-03-20T10:13:06;145483.28;;;12.03;90.98
47530;BME280;33272;51.922;7.730;2023-03-20T10:15:45;145447.78;;;11.89;89.59
47530;BME280;33272;51.922;7.730;2023-03-20T10:18:21;145403.31;;;11.71;88.61
47530;BME280;33272;51.922;7.730;2023-03-20T10:20:56;145395.72;;;11.68;94.05
47530;BME280;33272;51.922;7.730;2023-03-20T10:23:34;145407.09;;;11.72;89.70
47530;BME280;33272;51.922;7.730;2023-03-20T10:26:06;145398.22;;;11.69;90.12
47530;BME280;33272;51.922;7.730;2023-03-20T10:28:41;145355.13;;;11.51;88.29
47530;BME280;33272;51.922;7.730;2023-03-20T10:31:28;145366.53;;;11.56;89.42
47530;BME280;33272;51.922;7.730;2023-03-20T10:34:14;145410.94;;;11.74;91.50
47530;BME280;33272;51.922;7.730;2023-03-20T10:36:58;145365.25;;;11.55;87.93
47530;BME280;33272;51.922;7.730;2023-03-20T10:39:46;145344.94;;;11.47;85.58
47530;BME280;33272;51.922;7.730;2023-03-20T10:42:19;145405.84;;;11.72;89.55
47530;BME280;33272;51.922;7.730;2023-03-20T10:44:55;145388.09;;;11.65;86.60
47530;BME280;33272;51.922;7.730;2023-03-20T10:47:29;145333.56;;;11.43;89.56
47530;BME280;33272;51.922;7.730;2023-03-20T10:50:03;145267.63;;;11.16;87.64
47530;BME280;33272;51.922;7.730;2023-03-20T10:52:35;145324.69;;;11.39;89.25
47530;BME280;33272;51.922;7.730;2023-03-20T10:55:07;145319.59;;;11.37;86.98
47530;BME280;33272;51.922;7.730;2023-03-20T10:57:39;145319.59;;;11.37;82.54
47530;BME280;33272;51.922;7.730;2023-03-20T11:00:18;145351.28;;;11.50;84.84
47530;BME280;33272;51.922;7.730;2023-03-20T11:02:47;145399.50;;;11.69;88.19
47530;BME280;33272;51.922;7.730;2023-03-20T11:05:23;145449.06;;;11.89;85.83
47530;BME280;33272;51.922;7.730;2023-03-20T11:08:01;145450.31;;;11.90;85.75
47530;BME280;33272;51.922;7.730;2023-03-20T11:10:31;145479.50;;;12.01;81.90
47530;BME280;33272;51.922;7.730;2023-03-20T11:13:13;145424.91;;;11.79;79.70
47530;BME280;33272;51.922;7.730;2023-03-20T11:15:42;145413.47;;;11.75;84.84
47530;BME280;33272;51.922;7.730;2023-03-20T11:18:11;145435.03;;;11.83;82.07
47530;BME280;33272;51.922;7.730;2023-03-20T11:20:46;145433.78;;;11.83;83.61
47530;BME280;33272;51.922;7.730;2023-03-20T11:23:18;145488.38;;;12.05;83.62
47530;BME280;33272;51.922;7.730;2023-03-20T11:25:49;145488.38;;;12.05;83.20
47530;BME280;33272;51.922;7.730;2023-03-20T11:28:32;145483.28;;;12.03;79.18
47530;BME280;33272;51.922;7.730;2023-03-20T11:31:05;145499.78;;;12.10;83.65
47530;BME280;33272;51.922;7.730;2023-03-20T11:33:36;145509.97;;;12.14;83.08
47530;BME280;33272;51.922;7.730;2023-03-20T11:36:11;145463.03;;;11.95;79.72
47530;BME280;33272;51.922;7.730;2023-03-20T11:38:44;145527.72;;;12.21;80.92
47530;BME280;33272;51.922;7.730;2023-03-20T11:41:18;145499.78;;;12.10;81.36
47530;BME280;33272;51.922;7.730;2023-03-20T11:43:45;145508.66;;;12.13;82.81
47530;BME280;33272;51.922;7.730;2023-03-20T11:46:13;145539.13;;;12.25;80.92
47530;BME280;33272;51.922;7.730;2023-03-20T11:48:43;145499.78;;;12.10;77.69
47530;BME280;33272;51.922;7.730;2023-03-20T11:51:15;145526.47;;;12.20;79.52
47530;BME280;33272;51.922;7.730;2023-03-20T11:53:59;145511.22;;;12.14;80.25
47530;BME280;33272;51.922;7.730;2023-03-20T11:56:29;145501.03;;;12.10;79.51
47530;BME280;33272;51.922;7.730;2023-03-20T11:59:02;145531.50;;;12.22;83.40
47530;BME280;33272;51.922;7.730;2023-03-20T12:01:41;145443.97;;;11.87;78.39
47530;BME280;33272;51.922;7.730;2023-03-20T12:04:14;145461.72;;;11.94;81.94
47530;BME280;33272;51.922;7.730;2023-03-20T12:06:46;145506.13;;;12.12;81.20
47530;BME280;33272;51.922;7.730;2023-03-20T12:09:31;145550.56;;;12.30;81.91
47530;BME280;33272;51.922;7.730;2023-03-20T12:12:01;145541.69;;;12.26;82.83
47530;BME280;33272;51.922;7.730;2023-03-20T12:14:39;145494.75;;;12.08;80.96
47530;BME280;33272;51.922;7.730;2023-03-20T12:17:36;145496.00;;;12.08;78.51
47530;BME280;33272;51.922;7.730;2023-03-20T12:20:21;145440.19;;;11.86;77.33
47530;BME280;33272;51.922;7.730;2023-03-20T12:22:57;145513.75;;;12.15;82.25
47530;BME280;33272;51.922;7.730;2023-03-20T12:25:28;145544.22;;;12.27;81.32
47530;BME280;33272;51.922;7.730;2023-03-20T12:28:02;145499.78;;;12.10;77.44
47530;BME280;33272;51.922;7.730;2023-03-20T12:30:47;145545.47;;;12.28;78.91
47530;BME280;33272;51.922;7.730;2023-03-20T12:33:26;145567.06;;;12.37;78.47
47530;BME280;33272;51.922;7.730;2023-03-20T12:35:59;145622.91;;;12.59;81.90
47530;BME280;33272;51.922;7.730;2023-03-20T12:38:30;145667.38;;;12.77;80.57
47530;BME280;33272;51.922;7.730;2023-03-20T12:41:07;145667.38;;;12.77;76.82
47530;BME280;33272;51.922;7.730;2023-03-20T12:46:43;145699.13;;;12.90;77.19
47530;BME280;33272;51.922;7.730;2023-03-20T12:49:23;145630.53;;;12.62;75.69
47530;BME280;33272;51.922;7.730;2023-03-20T12:52:07;145465.53;;;11.96;77.44
47530;BME280;33272;51.922;7.730;2023-03-20T12:54:57;145470.59;;;11.98;80.02
47530;BME280;33272;51.922;7.730;2023-03-20T12:57:33;145469.31;;;11.97;80.58
47530;BME280;33272;51.922;7.730;2023-03-20T13:00:15;145456.66;;;11.92;80.13
47530;BME280;33272;51.922;7.730;2023-03-20T13:02:56;145352.56;;;11.50;81.79
47530;BME280;33272;51.922;7.730;2023-03-20T13:05:39;145367.78;;;11.56;82.10
47530;BME280;33272;51.922;7.730;2023-03-20T13:11:29;145331.03;;;11.42;83.98
47530;BME280;33272;51.922;7.730;2023-03-20T13:14:04;145372.88;;;11.58;84.10
47530;BME280;33272;51.922;7.730;2023-03-20T13:16:44;145327.19;;;11.40;85.86
47530;BME280;33272;51.922;7.730;2023-03-20T13:19:24;145355.13;;;11.51;87.05
47530;BME280;33272;51.922;7.730;2023-03-20T13:22:03;145375.38;;;11.59;87.68
47530;BME280;33272;51.922;7.730;2023-03-20T13:24:37;145405.84;;;11.72;88.39
47530;BME280;33272;51.922;7.730;2023-03-20T13:27:28;145366.53;;;11.56;88.79
47530;BME280;33272;51.922;7.730;2023-03-20T13:30:00;145396.97;;;11.68;89.14
47530;BME280;33272;51.922;7.730;2023-03-20T13:32:42;145353.88;;;11.51;90.72
47530;BME280;33272;51.922;7.730;2023-03-20T13:35:27;145298.03;;;11.28;91.69